sensor_id;sensor_type;location;lat;lon;timestamp;P1;durP1;ratioP1;P2;durP2;ratioP2
13481;SDS011;6813;60.352;15.746;2023-07-16T00:02:03;1.70;;;1.60;;
13481;SDS011;6813;60.352;15.746;2023-07-16T00:04:30;4.30;;;2.00;;
13481;SDS011;6813;60.352;15.746;2023-07-16T00:06:56;5.63;;;1.90;;
13481;SDS011;6813;60.352;15.746;2023-07-16T00:09:22;1.67;;;1.58;;
13481;SDS011;6813;60.352;15.746;2023-07-16T00:11:49;2.88;;;1.77;;
13481;SDS011;6813;60.352;15.746;2023-07-16T00:14:14;1.80;;;1.60;;
13481;SDS011;6813;60.352;15.746;2023-07-16T00:16:40;1.88;;;1.70;;
13481;SDS011;6813;60.352;15.746;2023-07-16T00:19:06;4.00;;;2.17;;
13481;SDS011;6813;60.352;15.746;2023-07-16T00:21:31;3.83;;;2.50;;
13481;SDS011;6813;60.352;15.746;2023-07-16T00:23:57;3.22;;;2.20;;
13481;SDS011;6813;60.352;15.746;2023-07-16T00:26:23;4.10;;;2.13;;
13481;SDS011;6813;60.352;15.746;2023-07-16T00:28:49;2.38;;;2.15;;
13481;SDS011;6813;60.352;15.746;2023-07-16T00:31:15;2.50;;;2.28;;
13481;SDS011;6813;60.352;15.746;2023-07-16T00:33:40;5.28;;;2.22;;
13481;SDS011;6813;60.352;15.746;2023-07-16T00:36:06;3.67;;;2.22;;
13481;SDS011;6813;60.352;15.746;2023-07-16T00:38:32;2.60;;;2.22;;
13481;SDS011;6813;60.352;15.746;2023-07-16T00:40:57;2.75;;;2.28;;
13481;SDS011;6813;60.352;15.746;2023-07-16T00:43:23;3.30;;;2.30;;
13481;SDS011;6813;60.352;15.746;2023-07-16T00:45:49;2.63;;;2.42;;
13481;SDS011;6813;60.352;15.746;2023-07-16T00:48:15;4.43;;;2.50;;
13481;SDS011;6813;60.352;15.746;2023-07-16T00:50:41;3.20;;;2.35;;
13481;SDS011;6813;60.352;15.746;2023-07-16T00:53:07;4.22;;;2.20;;
13481;SDS011;6813;60.352;15.746;2023-07-16T00:55:34;5.20;;;2.70;;
13481;SDS011;6813;60.352;15.746;2023-07-16T00:58:03;2.65;;;2.30;;
13481;SDS011;6813;60.352;15.746;2023-07-16T01:00:37;4.20;;;2.80;;
13481;SDS011;6813;60.352;15.746;2023-07-16T01:03:07;3.53;;;2.40;;
13481;SDS011;6813;60.352;15.746;2023-07-16T01:06:21;3.55;;;2.90;;
13481;SDS011;6813;60.352;15.746;2023-07-16T01:08:52;3.10;;;2.70;;
13481;SDS011;6813;60.352;15.746;2023-07-16T01:11:23;3.80;;;2.80;;
13481;SDS011;6813;60.352;15.746;2023-07-16T01:13:49;4.77;;;3.00;;
13481;SDS011;6813;60.352;15.746;2023-07-16T01:16:20;3.53;;;2.90;;
13481;SDS011;6813;60.352;15.746;2023-07-16T01:18:46;6.10;;;2.73;;
13481;SDS011;6813;60.352;15.746;2023-07-16T01:21:12;4.47;;;2.60;;
13481;SDS011;6813;60.352;15.746;2023-07-16T01:32:10;3.90;;;3.03;;
13481;SDS011;6813;60.352;15.746;2023-07-16T01:34:37;2.83;;;2.60;;
13481;SDS011;6813;60.352;15.746;2023-07-16T01:37:04;5.10;;;3.33;;
13481;SDS011;6813;60.352;15.746;2023-07-16T01:39:30;4.57;;;3.40;;
13481;SDS011;6813;60.352;15.746;2023-07-16T01:41:57;3.80;;;2.77;;
13481;SDS011;6813;60.352;15.746;2023-07-16T01:44:23;3.13;;;2.80;;
13481;SDS011;6813;60.352;15.746;2023-07-16T01:46:59;6.50;;;3.80;;
13481;SDS011;6813;60.352;15.746;2023-07-16T01:49:38;3.60;;;3.30;;
13481;SDS011;6813;60.352;15.746;2023-07-16T01:52:06;3.95;;;2.90;;
13481;SDS011;6813;60.352;15.746;2023-07-16T01:54:35;4.70;;;3.15;;
13481;SDS011;6813;60.352;15.746;2023-07-16T01:57:02;5.35;;;3.50;;
13481;SDS011;6813;60.352;15.746;2023-07-16T01:59:28;5.20;;;3.53;;
13481;SDS011;6813;60.352;15.746;2023-07-16T02:01:53;4.40;;;3.50;;
13481;SDS011;6813;60.352;15.746;2023-07-16T02:04:19;5.47;;;3.20;;
13481;SDS011;6813;60.352;15.746;2023-07-16T02:06:45;3.77;;;2.93;;
13481;SDS011;6813;60.352;15.746;2023-07-16T02:09:12;3.85;;;3.10;;
13481;SDS011;6813;60.352;15.746;2023-07-16T02:11:38;4.32;;;3.08;;
13481;SDS011;6813;60.352;15.746;2023-07-16T02:14:04;4.45;;;3.63;;
13481;SDS011;6813;60.352;15.746;2023-07-16T02:16:30;3.53;;;3.10;;
13481;SDS011;6813;60.352;15.746;2023-07-16T02:18:55;5.03;;;3.40;;
13481;SDS011;6813;60.352;15.746;2023-07-16T02:21:21;3.65;;;3.17;;
13481;SDS011;6813;60.352;15.746;2023-07-16T02:23:47;3.47;;;3.17;;
13481;SDS011;6813;60.352;15.746;2023-07-16T02:26:12;5.17;;;2.87;;
13481;SDS011;6813;60.352;15.746;2023-07-16T02:28:38;5.65;;;3.10;;
13481;SDS011;6813;60.352;15.746;2023-07-16T02:31:04;3.67;;;3.15;;
13481;SDS011;6813;60.352;15.746;2023-07-16T02:33:30;3.70;;;3.20;;
13481;SDS011;6813;60.352;15.746;2023-07-16T02:35:55;3.73;;;3.17;;
13481;SDS011;6813;60.352;15.746;2023-07-16T02:38:21;5.53;;;3.97;;
13481;SDS011;6813;60.352;15.746;2023-07-16T02:40:47;4.53;;;3.35;;
13481;SDS011;6813;60.352;15.746;2023-07-16T02:43:13;3.20;;;2.90;;
13481;SDS011;6813;60.352;15.746;2023-07-16T02:45:40;3.35;;;3.03;;
13481;SDS011;6813;60.352;15.746;2023-07-16T02:48:06;4.22;;;3.17;;
13481;SDS011;6813;60.352;15.746;2023-07-16T02:50:35;5.20;;;3.50;;
13481;SDS011;6813;60.352;15.746;2023-07-16T02:53:05;3.73;;;3.37;;
13481;SDS011;6813;60.352;15.746;2023-07-16T02:55:32;3.72;;;3.10;;
13481;SDS011;6813;60.352;15.746;2023-07-16T02:57:59;3.63;;;3.33;;
13481;SDS011;6813;60.352;15.746;2023-07-16T03:00:29;4.27;;;3.40;;
13481;SDS011;6813;60.352;15.746;2023-07-16T03:02:55;6.37;;;3.80;;
13481;SDS011;6813;60.352;15.746;2023-07-16T03:05:21;4.73;;;3.43;;
13481;SDS011;6813;60.352;15.746;2023-07-16T03:07:46;4.60;;;3.80;;
13481;SDS011;6813;60.352;15.746;2023-07-16T03:10:12;4.43;;;3.80;;
13481;SDS011;6813;60.352;15.746;2023-07-16T03:12:38;5.33;;;3.80;;
13481;SDS011;6813;60.352;15.746;2023-07-16T03:15:03;4.60;;;3.90;;
13481;SDS011;6813;60.352;15.746;2023-07-16T03:17:29;6.47;;;3.45;;
13481;SDS011;6813;60.352;15.746;2023-07-16T03:19:55;3.90;;;3.50;;
13481;SDS011;6813;60.352;15.746;2023-07-16T03:22:21;5.87;;;4.00;;
13481;SDS011;6813;60.352;15.746;2023-07-16T03:24:46;4.83;;;3.80;;
13481;SDS011;6813;60.352;15.746;2023-07-16T03:27:12;6.55;;;3.65;;
13481;SDS011;6813;60.352;15.746;2023-07-16T03:29:37;4.88;;;3.97;;
13481;SDS011;6813;60.352;15.746;2023-07-16T03:32:03;3.75;;;3.38;;
13481;SDS011;6813;60.352;15.746;2023-07-16T03:34:29;3.90;;;3.40;;
13481;SDS011;6813;60.352;15.746;2023-07-16T03:36:55;4.03;;;3.63;;
13481;SDS011;6813;60.352;15.746;2023-07-16T03:39:20;4.63;;;3.22;;
13481;SDS011;6813;60.352;15.746;2023-07-16T03:41:46;4.77;;;3.53;;
13481;SDS011;6813;60.352;15.746;2023-07-16T03:44:12;4.33;;;3.43;;
13481;SDS011;6813;60.352;15.746;2023-07-16T03:46:37;5.27;;;4.47;;
13481;SDS011;6813;60.352;15.746;2023-07-16T03:49:06;4.68;;;4.10;;
13481;SDS011;6813;60.352;15.746;2023-07-16T03:51:32;4.83;;;4.27;;
13481;SDS011;6813;60.352;15.746;2023-07-16T03:53:58;5.32;;;3.58;;
13481;SDS011;6813;60.352;15.746;2023-07-16T03:56:23;6.43;;;4.50;;
13481;SDS011;6813;60.352;15.746;2023-07-16T03:58:49;6.22;;;4.55;;
13481;SDS011;6813;60.352;15.746;2023-07-16T04:01:15;5.30;;;4.07;;
13481;SDS011;6813;60.352;15.746;2023-07-16T04:03:40;4.23;;;3.50;;
13481;SDS011;6813;60.352;15.746;2023-07-16T04:06:07;5.05;;;3.70;;
13481;SDS011;6813;60.352;15.746;2023-07-16T04:08:37;4.90;;;4.20;;
13481;SDS011;6813;60.352;15.746;2023-07-16T04:11:04;6.60;;;4.60;;
13481;SDS011;6813;60.352;15.746;2023-07-16T04:13:30;4.43;;;3.83;;
13481;SDS011;6813;60.352;15.746;2023-07-16T04:15:56;5.97;;;4.60;;
13481;SDS011;6813;60.352;15.746;2023-07-16T04:18:23;8.45;;;4.40;;
13481;SDS011;6813;60.352;15.746;2023-07-16T04:20:49;4.85;;;4.45;;
13481;SDS011;6813;60.352;15.746;2023-07-16T04:23:15;5.53;;;4.60;;
13481;SDS011;6813;60.352;15.746;2023-07-16T04:25:41;5.10;;;4.10;;
13481;SDS011;6813;60.352;15.746;2023-07-16T04:28:06;5.80;;;4.70;;
13481;SDS011;6813;60.352;15.746;2023-07-16T04:30:32;4.95;;;4.40;;
13481;SDS011;6813;60.352;15.746;2023-07-16T04:32:58;4.95;;;4.13;;
13481;SDS011;6813;60.352;15.746;2023-07-16T04:35:24;5.85;;;4.63;;
13481;SDS011;6813;60.352;15.746;2023-07-16T04:37:49;5.13;;;4.47;;
13481;SDS011;6813;60.352;15.746;2023-07-16T04:40:15;5.05;;;4.05;;
13481;SDS011;6813;60.352;15.746;2023-07-16T04:42:41;5.57;;;4.53;;
13481;SDS011;6813;60.352;15.746;2023-07-16T04:45:06;6.63;;;5.22;;
13481;SDS011;6813;60.352;15.746;2023-07-16T04:47:32;5.38;;;4.53;;
13481;SDS011;6813;60.352;15.746;2023-07-16T04:49:58;4.88;;;4.38;;
13481;SDS011;6813;60.352;15.746;2023-07-16T04:52:24;5.85;;;4.53;;
13481;SDS011;6813;60.352;15.746;2023-07-16T04:54:50;5.28;;;4.72;;
13481;SDS011;6813;60.352;15.746;2023-07-16T04:57:15;5.22;;;4.47;;
13481;SDS011;6813;60.352;15.746;2023-07-16T04:59:41;4.80;;;4.30;;
13481;SDS011;6813;60.352;15.746;2023-07-16T05:02:07;6.20;;;4.97;;
13481;SDS011;6813;60.352;15.746;2023-07-16T05:04:33;6.88;;;4.97;;
13481;SDS011;6813;60.352;15.746;2023-07-16T05:07:00;7.15;;;5.43;;
13481;SDS011;6813;60.352;15.746;2023-07-16T05:09:27;6.28;;;4.78;;
13481;SDS011;6813;60.352;15.746;2023-07-16T05:11:53;6.10;;;5.50;;
13481;SDS011;6813;60.352;15.746;2023-07-16T05:14:19;6.10;;;4.60;;
13481;SDS011;6813;60.352;15.746;2023-07-16T05:16:44;7.03;;;4.80;;
13481;SDS011;6813;60.352;15.746;2023-07-16T05:19:10;8.80;;;4.45;;
13481;SDS011;6813;60.352;15.746;2023-07-16T05:21:36;5.57;;;5.07;;
13481;SDS011;6813;60.352;15.746;2023-07-16T05:24:02;7.50;;;5.70;;
13481;SDS011;6813;60.352;15.746;2023-07-16T05:26:28;7.07;;;5.03;;
13481;SDS011;6813;60.352;15.746;2023-07-16T05:28:53;5.65;;;4.63;;
13481;SDS011;6813;60.352;15.746;2023-07-16T05:31:19;6.28;;;4.93;;
13481;SDS011;6813;60.352;15.746;2023-07-16T05:33:45;4.72;;;4.28;;
13481;SDS011;6813;60.352;15.746;2023-07-16T05:36:10;8.82;;;5.63;;
13481;SDS011;6813;60.352;15.746;2023-07-16T05:38:36;11.48;;;4.93;;
13481;SDS011;6813;60.352;15.746;2023-07-16T05:41:03;5.57;;;5.03;;
13481;SDS011;6813;60.352;15.746;2023-07-16T05:43:30;5.95;;;4.53;;
13481;SDS011;6813;60.352;15.746;2023-07-16T05:45:56;5.40;;;4.90;;
13481;SDS011;6813;60.352;15.746;2023-07-16T05:48:21;5.88;;;5.00;;
13481;SDS011;6813;60.352;15.746;2023-07-16T05:50:48;7.65;;;5.10;;
13481;SDS011;6813;60.352;15.746;2023-07-16T05:53:14;6.43;;;4.55;;
13481;SDS011;6813;60.352;15.746;2023-07-16T05:55:40;7.18;;;4.88;;
13481;SDS011;6813;60.352;15.746;2023-07-16T05:58:05;7.93;;;4.72;;
13481;SDS011;6813;60.352;15.746;2023-07-16T06:00:31;7.75;;;5.30;;
13481;SDS011;6813;60.352;15.746;2023-07-16T06:02:57;5.72;;;4.90;;
13481;SDS011;6813;60.352;15.746;2023-07-16T06:05:23;6.32;;;4.65;;
13481;SDS011;6813;60.352;15.746;2023-07-16T06:07:51;7.70;;;4.85;;
13481;SDS011;6813;60.352;15.746;2023-07-16T06:10:17;8.85;;;5.15;;
13481;SDS011;6813;60.352;15.746;2023-07-16T06:12:42;6.97;;;4.78;;
13481;SDS011;6813;60.352;15.746;2023-07-16T06:15:08;5.88;;;5.20;;
13481;SDS011;6813;60.352;15.746;2023-07-16T06:17:34;4.72;;;4.28;;
13481;SDS011;6813;60.352;15.746;2023-07-16T06:20:01;5.50;;;4.13;;
13481;SDS011;6813;60.352;15.746;2023-07-16T06:22:28;5.88;;;4.32;;
13481;SDS011;6813;60.352;15.746;2023-07-16T06:24:53;5.93;;;4.55;;
13481;SDS011;6813;60.352;15.746;2023-07-16T06:27:19;4.68;;;4.07;;
13481;SDS011;6813;60.352;15.746;2023-07-16T06:29:45;4.82;;;4.10;;
13481;SDS011;6813;60.352;15.746;2023-07-16T06:32:10;4.18;;;3.78;;
13481;SDS011;6813;60.352;15.746;2023-07-16T06:34:36;5.07;;;3.50;;
13481;SDS011;6813;60.352;15.746;2023-07-16T06:37:02;3.97;;;3.58;;
13481;SDS011;6813;60.352;15.746;2023-07-16T06:39:27;4.20;;;3.15;;
13481;SDS011;6813;60.352;15.746;2023-07-16T06:41:53;3.67;;;2.92;;
13481;SDS011;6813;60.352;15.746;2023-07-16T06:44:19;3.47;;;2.70;;
13481;SDS011;6813;60.352;15.746;2023-07-16T06:46:44;3.67;;;2.85;;
13481;SDS011;6813;60.352;15.746;2023-07-16T06:49:10;2.13;;;1.92;;
13481;SDS011;6813;60.352;15.746;2023-07-16T06:51:36;3.20;;;2.30;;
13481;SDS011;6813;60.352;15.746;2023-07-16T06:54:01;2.60;;;2.40;;
13481;SDS011;6813;60.352;15.746;2023-07-16T06:56:27;2.10;;;2.00;;
13481;SDS011;6813;60.352;15.746;2023-07-16T06:58:53;2.40;;;2.20;;
13481;SDS011;6813;60.352;15.746;2023-07-16T07:01:19;2.25;;;2.05;;
13481;SDS011;6813;60.352;15.746;2023-07-16T07:03:44;2.80;;;2.03;;
13481;SDS011;6813;60.352;15.746;2023-07-16T07:06:10;1.95;;;1.83;;
13481;SDS011;6813;60.352;15.746;2023-07-16T07:08:36;2.20;;;2.00;;
13481;SDS011;6813;60.352;15.746;2023-07-16T07:11:02;3.25;;;1.88;;
13481;SDS011;6813;60.352;15.746;2023-07-16T07:13:28;2.40;;;1.85;;
13481;SDS011;6813;60.352;15.746;2023-07-16T07:15:54;1.70;;;1.60;;
13481;SDS011;6813;60.352;15.746;2023-07-16T07:18:21;1.70;;;1.52;;
13481;SDS011;6813;60.352;15.746;2023-07-16T07:20:47;2.60;;;1.58;;
13481;SDS011;6813;60.352;15.746;2023-07-16T07:23:13;1.55;;;1.45;;
13481;SDS011;6813;60.352;15.746;2023-07-16T07:25:39;1.30;;;1.17;;
13481;SDS011;6813;60.352;15.746;2023-07-16T07:28:06;1.65;;;1.48;;
13481;SDS011;6813;60.352;15.746;2023-07-16T07:30:31;1.40;;;1.30;;
13481;SDS011;6813;60.352;15.746;2023-07-16T07:32:57;1.38;;;1.27;;
13481;SDS011;6813;60.352;15.746;2023-07-16T07:35:23;1.75;;;1.52;;
13481;SDS011;6813;60.352;15.746;2023-07-16T07:37:49;1.20;;;1.10;;
13481;SDS011;6813;60.352;15.746;2023-07-16T07:40:14;3.63;;;1.30;;
13481;SDS011;6813;60.352;15.746;2023-07-16T07:42:40;1.20;;;1.10;;
13481;SDS011;6813;60.352;15.746;2023-07-16T07:45:06;1.65;;;0.95;;
13481;SDS011;6813;60.352;15.746;2023-07-16T07:47:32;0.80;;;0.80;;
13481;SDS011;6813;60.352;15.746;2023-07-16T07:49:58;1.05;;;0.95;;
13481;SDS011;6813;60.352;15.746;2023-07-16T07:52:23;1.20;;;1.10;;
13481;SDS011;6813;60.352;15.746;2023-07-16T07:54:49;1.27;;;0.95;;
13481;SDS011;6813;60.352;15.746;2023-07-16T07:57:15;1.30;;;1.20;;
13481;SDS011;6813;60.352;15.746;2023-07-16T07:59:41;1.23;;;1.13;;
13481;SDS011;6813;60.352;15.746;2023-07-16T08:02:06;1.25;;;1.00;;
13481;SDS011;6813;60.352;15.746;2023-07-16T08:04:32;1.10;;;1.10;;
13481;SDS011;6813;60.352;15.746;2023-07-16T08:06:58;1.00;;;1.00;;
13481;SDS011;6813;60.352;15.746;2023-07-16T08:09:25;1.92;;;1.73;;
13481;SDS011;6813;60.352;15.746;2023-07-16T08:11:51;1.00;;;0.80;;
13481;SDS011;6813;60.352;15.746;2023-07-16T08:14:17;1.10;;;1.00;;
13481;SDS011;6813;60.352;15.746;2023-07-16T08:16:43;0.68;;;0.68;;
13481;SDS011;6813;60.352;15.746;2023-07-16T08:19:09;0.70;;;0.70;;
13481;SDS011;6813;60.352;15.746;2023-07-16T08:21:35;0.90;;;0.80;;
13481;SDS011;6813;60.352;15.746;2023-07-16T08:24:02;1.02;;;1.00;;
13481;SDS011;6813;60.352;15.746;2023-07-16T08:26:30;1.00;;;1.00;;
13481;SDS011;6813;60.352;15.746;2023-07-16T08:28:56;1.27;;;1.13;;
13481;SDS011;6813;60.352;15.746;2023-07-16T08:31:21;0.98;;;0.98;;
13481;SDS011;6813;60.352;15.746;2023-07-16T08:33:47;1.00;;;1.00;;
13481;SDS011;6813;60.352;15.746;2023-07-16T08:36:13;0.93;;;0.93;;
13481;SDS011;6813;60.352;15.746;2023-07-16T08:38:38;0.90;;;0.90;;
13481;SDS011;6813;60.352;15.746;2023-07-16T08:41:04;1.15;;;1.05;;
13481;SDS011;6813;60.352;15.746;2023-07-16T08:43:30;1.23;;;1.13;;
13481;SDS011;6813;60.352;15.746;2023-07-16T08:45:57;1.20;;;1.00;;
13481;SDS011;6813;60.352;15.746;2023-07-16T08:48:25;1.63;;;1.15;;
13481;SDS011;6813;60.352;15.746;2023-07-16T08:50:53;1.00;;;1.00;;
13481;SDS011;6813;60.352;15.746;2023-07-16T08:53:23;1.30;;;1.20;;
13481;SDS011;6813;60.352;15.746;2023-07-16T08:55:48;1.23;;;1.13;;
13481;SDS011;6813;60.352;15.746;2023-07-16T08:58:14;2.45;;;1.45;;
13481;SDS011;6813;60.352;15.746;2023-07-16T09:00:44;0.80;;;0.80;;
13481;SDS011;6813;60.352;15.746;2023-07-16T09:03:14;1.30;;;1.13;;
13481;SDS011;6813;60.352;15.746;2023-07-16T09:05:45;1.02;;;1.02;;
13481;SDS011;6813;60.352;15.746;2023-07-16T09:08:12;1.10;;;1.10;;
13481;SDS011;6813;60.352;15.746;2023-07-16T09:10:39;2.45;;;1.20;;
13481;SDS011;6813;60.352;15.746;2023-07-16T09:13:06;1.45;;;1.35;;
13481;SDS011;6813;60.352;15.746;2023-07-16T09:15:32;1.77;;;1.25;;
13481;SDS011;6813;60.352;15.746;2023-07-16T09:17:59;1.52;;;1.20;;
13481;SDS011;6813;60.352;15.746;2023-07-16T09:20:25;2.38;;;1.45;;
13481;SDS011;6813;60.352;15.746;2023-07-16T09:22:55;1.98;;;1.52;;
13481;SDS011;6813;60.352;15.746;2023-07-16T09:25:28;1.85;;;1.65;;
13481;SDS011;6813;60.352;15.746;2023-07-16T09:27:54;1.63;;;1.48;;
13481;SDS011;6813;60.352;15.746;2023-07-16T09:30:22;2.30;;;1.40;;
13481;SDS011;6813;60.352;15.746;2023-07-16T09:32:48;1.38;;;1.27;;
13481;SDS011;6813;60.352;15.746;2023-07-16T09:35:14;1.60;;;1.50;;
13481;SDS011;6813;60.352;15.746;2023-07-16T09:37:42;1.50;;;1.40;;
13481;SDS011;6813;60.352;15.746;2023-07-16T09:40:09;2.10;;;1.65;;
13481;SDS011;6813;60.352;15.746;2023-07-16T09:42:40;2.28;;;1.60;;
13481;SDS011;6813;60.352;15.746;2023-07-16T09:45:07;1.77;;;1.50;;
13481;SDS011;6813;60.352;15.746;2023-07-16T09:47:37;3.33;;;1.40;;
13481;SDS011;6813;60.352;15.746;2023-07-16T09:50:02;1.80;;;1.70;;
13481;SDS011;6813;60.352;15.746;2023-07-16T09:52:31;1.20;;;1.20;;
13481;SDS011;6813;60.352;15.746;2023-07-16T09:54:58;1.30;;;1.20;;
13481;SDS011;6813;60.352;15.746;2023-07-16T09:57:27;1.60;;;1.50;;
13481;SDS011;6813;60.352;15.746;2023-07-16T09:59:58;1.95;;;1.80;;
13481;SDS011;6813;60.352;15.746;2023-07-16T10:02:29;1.83;;;1.45;;
13481;SDS011;6813;60.352;15.746;2023-07-16T10:04:58;2.85;;;1.63;;
13481;SDS011;6813;60.352;15.746;2023-07-16T10:07:24;1.55;;;1.45;;
13481;SDS011;6813;60.352;15.746;2023-07-16T10:09:55;1.90;;;1.70;;
13481;SDS011;6813;60.352;15.746;2023-07-16T10:12:25;1.75;;;1.60;;
13481;SDS011;6813;60.352;15.746;2023-07-16T10:14:52;1.67;;;1.55;;
13481;SDS011;6813;60.352;15.746;2023-07-16T10:17:22;1.77;;;1.65;;
13481;SDS011;6813;60.352;15.746;2023-07-16T10:22:35;3.22;;;2.00;;
13481;SDS011;6813;60.352;15.746;2023-07-16T10:25:02;2.00;;;1.70;;
13481;SDS011;6813;60.352;15.746;2023-07-16T10:27:33;4.13;;;2.05;;
13481;SDS011;6813;60.352;15.746;2023-07-16T10:30:00;1.85;;;1.70;;
13481;SDS011;6813;60.352;15.746;2023-07-16T10:32:30;2.28;;;1.58;;
13481;SDS011;6813;60.352;15.746;2023-07-16T10:34:57;2.00;;;1.90;;
13481;SDS011;6813;60.352;15.746;2023-07-16T10:37:24;4.53;;;2.03;;
13481;SDS011;6813;60.352;15.746;2023-07-16T10:39:51;3.33;;;1.98;;
13481;SDS011;6813;60.352;15.746;2023-07-16T10:42:20;2.13;;;1.92;;
13481;SDS011;6813;60.352;15.746;2023-07-16T10:44:50;1.80;;;1.70;;
13481;SDS011;6813;60.352;15.746;2023-07-16T10:47:22;2.00;;;1.90;;
13481;SDS011;6813;60.352;15.746;2023-07-16T10:49:49;4.00;;;1.92;;
13481;SDS011;6813;60.352;15.746;2023-07-16T10:52:17;2.15;;;2.00;;
13481;SDS011;6813;60.352;15.746;2023-07-16T10:54:43;2.03;;;1.92;;
13481;SDS011;6813;60.352;15.746;2023-07-16T10:57:10;2.35;;;2.15;;
13481;SDS011;6813;60.352;15.746;2023-07-16T10:59:37;2.60;;;2.40;;
13481;SDS011;6813;60.352;15.746;2023-07-16T11:02:05;2.30;;;2.10;;
13481;SDS011;6813;60.352;15.746;2023-07-16T11:04:35;2.25;;;2.05;;
13481;SDS011;6813;60.352;15.746;2023-07-16T11:07:05;2.60;;;2.30;;
13481;SDS011;6813;60.352;15.746;2023-07-16T11:09:31;2.75;;;1.80;;
13481;SDS011;6813;60.352;15.746;2023-07-16T11:12:05;1.83;;;1.73;;
13481;SDS011;6813;60.352;15.746;2023-07-16T11:14:35;1.90;;;1.80;;
13481;SDS011;6813;60.352;15.746;2023-07-16T11:17:07;4.32;;;1.92;;
13481;SDS011;6813;60.352;15.746;2023-07-16T11:19:34;2.00;;;1.80;;
13481;SDS011;6813;60.352;15.746;2023-07-16T11:22:01;1.95;;;1.85;;
13481;SDS011;6813;60.352;15.746;2023-07-16T11:24:28;2.42;;;2.10;;
13481;SDS011;6813;60.352;15.746;2023-07-16T11:27:01;3.05;;;2.00;;
13481;SDS011;6813;60.352;15.746;2023-07-16T11:29:26;2.17;;;1.98;;
13481;SDS011;6813;60.352;15.746;2023-07-16T11:32:01;4.53;;;2.13;;
13481;SDS011;6813;60.352;15.746;2023-07-16T11:34:27;4.45;;;1.85;;
13481;SDS011;6813;60.352;15.746;2023-07-16T11:36:54;3.47;;;1.70;;
13481;SDS011;6813;60.352;15.746;2023-07-16T11:39:20;4.65;;;1.88;;
13481;SDS011;6813;60.352;15.746;2023-07-16T11:41:55;2.97;;;1.88;;
13481;SDS011;6813;60.352;15.746;2023-07-16T11:44:22;2.10;;;1.90;;
13481;SDS011;6813;60.352;15.746;2023-07-16T11:46:59;2.00;;;1.83;;
13481;SDS011;6813;60.352;15.746;2023-07-16T11:49:25;2.10;;;1.90;;
13481;SDS011;6813;60.352;15.746;2023-07-16T11:51:51;1.92;;;1.77;;
13481;SDS011;6813;60.352;15.746;2023-07-16T11:54:17;4.70;;;2.25;;
13481;SDS011;6813;60.352;15.746;2023-07-16T11:56:42;2.33;;;2.13;;
13481;SDS011;6813;60.352;15.746;2023-07-16T11:59:12;2.25;;;2.05;;
13481;SDS011;6813;60.352;15.746;2023-07-16T12:01:41;3.63;;;2.00;;
13481;SDS011;6813;60.352;15.746;2023-07-16T12:04:07;2.00;;;1.90;;
13481;SDS011;6813;60.352;15.746;2023-07-16T12:06:33;3.13;;;2.42;;
13481;SDS011;6813;60.352;15.746;2023-07-16T12:08:58;2.20;;;2.05;;
13481;SDS011;6813;60.352;15.746;2023-07-16T12:11:24;2.92;;;2.17;;
13481;SDS011;6813;60.352;15.746;2023-07-16T12:13:52;3.30;;;2.30;;
13481;SDS011;6813;60.352;15.746;2023-07-16T12:16:18;3.45;;;2.22;;
13481;SDS011;6813;60.352;15.746;2023-07-16T12:18:46;2.33;;;2.13;;
13481;SDS011;6813;60.352;15.746;2023-07-16T12:21:12;3.45;;;2.50;;
13481;SDS011;6813;60.352;15.746;2023-07-16T12:23:38;2.40;;;2.20;;
13481;SDS011;6813;60.352;15.746;2023-07-16T12:26:03;5.10;;;2.50;;
13481;SDS011;6813;60.352;15.746;2023-07-16T12:28:29;2.78;;;2.38;;
13481;SDS011;6813;60.352;15.746;2023-07-16T12:30:54;2.50;;;2.30;;
13481;SDS011;6813;60.352;15.746;2023-07-16T12:33:20;2.50;;;2.28;;
13481;SDS011;6813;60.352;15.746;2023-07-16T12:35:46;2.85;;;2.42;;
13481;SDS011;6813;60.352;15.746;2023-07-16T12:38:17;3.33;;;2.45;;
13481;SDS011;6813;60.352;15.746;2023-07-16T12:40:47;2.55;;;2.35;;
13481;SDS011;6813;60.352;15.746;2023-07-16T12:43:16;2.28;;;2.08;;
13481;SDS011;6813;60.352;15.746;2023-07-16T12:45:43;6.15;;;2.33;;
13481;SDS011;6813;60.352;15.746;2023-07-16T12:48:08;2.75;;;2.17;;
13481;SDS011;6813;60.352;15.746;2023-07-16T12:50:34;3.40;;;2.00;;
13481;SDS011;6813;60.352;15.746;2023-07-16T12:53:21;2.30;;;2.00;;
13481;SDS011;6813;60.352;15.746;2023-07-16T12:55:50;7.57;;;2.80;;
13481;SDS011;6813;60.352;15.746;2023-07-16T12:58:16;3.80;;;2.00;;
13481;SDS011;6813;60.352;15.746;2023-07-16T13:00:41;2.72;;;1.80;;
13481;SDS011;6813;60.352;15.746;2023-07-16T13:03:08;3.20;;;2.35;;
13481;SDS011;6813;60.352;15.746;2023-07-16T13:05:58;4.35;;;2.15;;
13481;SDS011;6813;60.352;15.746;2023-07-16T13:08:23;3.75;;;2.13;;
13481;SDS011;6813;60.352;15.746;2023-07-16T13:10:49;3.53;;;2.30;;
13481;SDS011;6813;60.352;15.746;2023-07-16T13:13:15;4.68;;;2.30;;
13481;SDS011;6813;60.352;15.746;2023-07-16T13:15:41;2.97;;;1.90;;
13481;SDS011;6813;60.352;15.746;2023-07-16T13:18:07;3.47;;;2.40;;
13481;SDS011;6813;60.352;15.746;2023-07-16T13:20:34;3.45;;;2.10;;
13481;SDS011;6813;60.352;15.746;2023-07-16T13:23:20;2.55;;;1.80;;
13481;SDS011;6813;60.352;15.746;2023-07-16T13:25:54;4.47;;;1.92;;
13481;SDS011;6813;60.352;15.746;2023-07-16T13:28:21;1.83;;;1.60;;
13481;SDS011;6813;60.352;15.746;2023-07-16T13:30:48;3.65;;;2.35;;
13481;SDS011;6813;60.352;15.746;2023-07-16T13:33:14;4.10;;;1.90;;
13481;SDS011;6813;60.352;15.746;2023-07-16T13:36:03;4.30;;;2.30;;
13481;SDS011;6813;60.352;15.746;2023-07-16T13:38:36;3.75;;;2.05;;
13481;SDS011;6813;60.352;15.746;2023-07-16T13:41:01;3.25;;;1.65;;
13481;SDS011;6813;60.352;15.746;2023-07-16T13:43:27;3.65;;;1.65;;
13481;SDS011;6813;60.352;15.746;2023-07-16T13:45:53;2.83;;;1.70;;
13481;SDS011;6813;60.352;15.746;2023-07-16T13:48:19;3.92;;;1.67;;
13481;SDS011;6813;60.352;15.746;2023-07-16T13:50:44;4.20;;;2.10;;
13481;SDS011;6813;60.352;15.746;2023-07-16T13:53:10;3.55;;;2.15;;
13481;SDS011;6813;60.352;15.746;2023-07-16T13:55:36;2.88;;;1.52;;
13481;SDS011;6813;60.352;15.746;2023-07-16T13:58:11;2.45;;;1.55;;
13481;SDS011;6813;60.352;15.746;2023-07-16T14:00:37;5.18;;;2.13;;
13481;SDS011;6813;60.352;15.746;2023-07-16T14:03:07;3.92;;;2.10;;
13481;SDS011;6813;60.352;15.746;2023-07-16T14:05:33;5.25;;;1.77;;
13481;SDS011;6813;60.352;15.746;2023-07-16T14:08:04;4.40;;;2.05;;
13481;SDS011;6813;60.352;15.746;2023-07-16T14:10:30;3.55;;;1.60;;
13481;SDS011;6813;60.352;15.746;2023-07-16T14:12:56;2.97;;;1.70;;
13481;SDS011;6813;60.352;15.746;2023-07-16T14:15:21;3.67;;;1.63;;
13481;SDS011;6813;60.352;15.746;2023-07-16T14:17:48;3.83;;;1.90;;
13481;SDS011;6813;60.352;15.746;2023-07-16T14:20:14;4.22;;;1.92;;
13481;SDS011;6813;60.352;15.746;2023-07-16T14:22:51;3.70;;;1.85;;
13481;SDS011;6813;60.352;15.746;2023-07-16T14:25:17;2.83;;;1.60;;
13481;SDS011;6813;60.352;15.746;2023-07-16T14:27:43;4.78;;;1.60;;
13481;SDS011;6813;60.352;15.746;2023-07-16T14:30:09;4.97;;;1.80;;
13481;SDS011;6813;60.352;15.746;2023-07-16T14:32:35;6.85;;;1.90;;
13481;SDS011;6813;60.352;15.746;2023-07-16T14:35:01;4.82;;;2.00;;
13481;SDS011;6813;60.352;15.746;2023-07-16T14:37:28;3.30;;;1.52;;
13481;SDS011;6813;60.352;15.746;2023-07-16T14:39:54;3.20;;;1.90;;
13481;SDS011;6813;60.352;15.746;2023-07-16T14:42:20;5.47;;;1.92;;
13481;SDS011;6813;60.352;15.746;2023-07-16T14:44:46;2.60;;;1.83;;
13481;SDS011;6813;60.352;15.746;2023-07-16T14:47:12;2.72;;;1.80;;
13481;SDS011;6813;60.352;15.746;2023-07-16T14:49:37;3.88;;;1.80;;
13481;SDS011;6813;60.352;15.746;2023-07-16T14:52:03;5.40;;;2.03;;
13481;SDS011;6813;60.352;15.746;2023-07-16T14:54:29;2.85;;;1.73;;
13481;SDS011;6813;60.352;15.746;2023-07-16T14:56:55;3.53;;;1.65;;
13481;SDS011;6813;60.352;15.746;2023-07-16T14:59:22;3.38;;;1.88;;